createdAt,value
2019-03-13T00:02:32.423Z,22.67
2019-03-13T00:05:03.361Z,20.50
2019-03-13T00:07:34.216Z,23.20
2019-03-13T00:10:05.340Z,20.23
2019-03-13T00:12:36.418Z,22.13
2019-03-13T00:15:08.327Z,23.50
2019-03-13T00:17:39.591Z,22.13
2019-03-13T00:20:11.213Z,22.07
2019-03-13T00:22:41.654Z,22.20
2019-03-13T00:25:12.296Z,19.93
2019-03-13T00:27:42.823Z,18.93
2019-03-13T00:30:15.111Z,19.57
2019-03-13T00:32:45.977Z,18.30
2019-03-13T00:35:16.616Z,17.03
2019-03-13T00:37:47.609Z,17.60
2019-03-13T00:40:18.268Z,17.50
2019-03-13T00:42:49.124Z,17.20
2019-03-13T00:45:19.913Z,17.63
2019-03-13T00:47:53.093Z,18.20
2019-03-13T00:50:25.747Z,17.07
2019-03-13T00:52:56.391Z,17.97
2019-03-13T00:55:27.120Z,18.37
2019-03-13T00:57:57.545Z,17.83
2019-03-13T01:00:51.575Z,16.90
2019-03-13T01:03:41.416Z,19.03
2019-03-13T01:06:16.960Z,17.00
2019-03-13T01:08:48.765Z,18.47
2019-03-13T01:11:19.427Z,17.67
2019-03-13T01:13:50.126Z,18.20
2019-03-13T01:16:20.974Z,18.13
2019-03-13T01:18:52.327Z,18.30
2019-03-13T01:21:23.325Z,17.30
2019-03-13T01:23:53.979Z,18.37
2019-03-13T01:26:24.550Z,18.97
2019-03-13T01:28:55.584Z,19.00
2019-03-13T01:31:54.483Z,19.17
2019-03-13T01:34:46.743Z,18.53
2019-03-13T01:37:17.824Z,17.53
2019-03-13T01:39:48.423Z,18.10
2019-03-13T01:42:19.016Z,16.77
2019-03-13T01:44:50.452Z,17.43
2019-03-13T01:47:21.347Z,16.03
2019-03-13T01:49:52.664Z,15.83
2019-03-13T01:52:25.052Z,16.13
2019-03-13T01:54:55.811Z,17.10
2019-03-13T01:57:26.782Z,16.83
2019-03-13T01:59:57.264Z,16.40
2019-03-13T02:02:28.416Z,16.60
2019-03-13T02:04:59.009Z,17.60
2019-03-13T02:07:29.791Z,16.03
2019-03-13T02:10:00.680Z,16.27
2019-03-13T02:12:31.528Z,16.10
2019-03-13T02:15:02.073Z,15.87
2019-03-13T02:17:32.544Z,15.47
2019-03-13T02:20:03.519Z,15.67
2019-03-13T02:22:34.038Z,16.40
2019-03-13T02:25:05.031Z,16.90
2019-03-13T02:27:36.519Z,16.57
2019-03-13T02:30:08.480Z,17.10
2019-03-13T02:32:39.259Z,16.97
2019-03-13T02:35:09.693Z,16.70
2019-03-13T02:37:40.257Z,17.17
2019-03-13T02:40:11.666Z,17.10
2019-03-13T02:42:43.314Z,17.60
2019-03-13T02:45:14.303Z,18.00
2019-03-13T02:47:45.220Z,17.07
2019-03-13T02:50:16.668Z,16.87
2019-03-13T02:52:47.819Z,16.00
2019-03-13T02:55:18.211Z,16.93
2019-03-13T02:57:49.590Z,16.60
2019-03-13T03:00:23.970Z,15.90
2019-03-13T03:02:58.377Z,16.23
2019-03-13T03:05:29.435Z,17.00
2019-03-13T03:08:00.332Z,16.80
2019-03-13T03:10:31.499Z,16.40
2019-03-13T03:13:02.909Z,15.57
2019-03-13T03:15:33.483Z,16.30
2019-03-13T03:18:04.209Z,17.83
2019-03-13T03:20:35.339Z,16.50
2019-03-13T03:23:06.387Z,16.37
2019-03-13T03:25:37.520Z,16.97
2019-03-13T03:28:08.716Z,17.00
2019-03-13T03:30:39.449Z,16.33
2019-03-13T03:33:10.869Z,17.80
2019-03-13T03:35:41.821Z,16.93
2019-03-13T03:38:13.423Z,16.40
2019-03-13T03:40:45.803Z,16.60
2019-03-13T03:43:16.255Z,17.30
2019-03-13T03:45:47.243Z,18.03
2019-03-13T03:48:17.750Z,17.43
2019-03-13T03:50:48.510Z,17.03
2019-03-13T03:53:19.619Z,18.20
2019-03-13T03:55:50.508Z,18.40
2019-03-13T03:58:21.147Z,16.67
2019-03-13T04:00:51.652Z,17.80
2019-03-13T04:03:23.421Z,17.60
2019-03-13T04:05:54.086Z,17.77
2019-03-13T04:08:24.944Z,17.00
2019-03-13T04:10:55.811Z,17.93
2019-03-13T04:13:26.462Z,16.53
2019-03-13T04:15:57.897Z,17.67
2019-03-13T04:18:29.234Z,16.20
2019-03-13T04:20:59.827Z,18.17
2019-03-13T04:23:31.254Z,16.97
2019-03-13T04:26:02.249Z,16.63
2019-03-13T04:28:32.747Z,17.00
2019-03-13T04:31:03.221Z,16.50
2019-03-13T04:33:34.858Z,16.37
2019-03-13T04:36:05.548Z,16.20
2019-03-13T04:38:35.903Z,15.63
2019-03-13T04:41:06.369Z,16.57
2019-03-13T04:43:37.572Z,16.07
2019-03-13T04:46:08.211Z,16.00
2019-03-13T04:48:38.738Z,16.70
2019-03-13T04:51:11.156Z,16.00
2019-03-13T04:53:41.796Z,17.90
2019-03-13T04:56:12.095Z,16.47
2019-03-13T04:58:42.676Z,16.83
2019-03-13T05:01:13.996Z,17.23
2019-03-13T05:03:45.107Z,16.97
2019-03-13T05:06:23.902Z,17.30
2019-03-13T05:09:31.651Z,18.00
2019-03-13T05:12:02.058Z,18.67
2019-03-13T05:14:35.693Z,17.80
2019-03-13T05:17:07.348Z,17.00
2019-03-13T05:19:39.211Z,17.50
2019-03-13T05:22:09.512Z,17.00
2019-03-13T05:24:40.871Z,17.40
2019-03-13T05:27:11.468Z,17.40
2019-03-13T05:29:42.222Z,18.03
2019-03-13T05:32:12.977Z,18.07
2019-03-13T05:34:44.200Z,17.23
2019-03-13T05:37:15.336Z,18.17
2019-03-13T05:39:46.634Z,18.70
2019-03-13T05:42:17.088Z,16.80
2019-03-13T05:44:47.866Z,17.30
2019-03-13T05:47:18.474Z,18.77
2019-03-13T05:49:49.252Z,17.23
2019-03-13T05:52:19.735Z,17.10
2019-03-13T05:54:50.141Z,17.40
2019-03-13T05:57:20.881Z,18.50
2019-03-13T05:59:51.664Z,17.50
2019-03-13T06:02:22.910Z,17.17
2019-03-13T06:04:54.026Z,17.37
2019-03-13T06:07:24.616Z,17.90
2019-03-13T06:09:55.981Z,18.93
2019-03-13T06:12:26.528Z,19.00
2019-03-13T06:14:57.050Z,16.97
2019-03-13T06:17:27.516Z,17.50
2019-03-13T06:19:58.441Z,15.73
2019-03-13T06:22:29.019Z,16.13
2019-03-13T06:24:59.733Z,16.70
2019-03-13T06:27:30.325Z,16.60
2019-03-13T06:30:00.773Z,15.30
2019-03-13T06:32:32.452Z,16.23
2019-03-13T06:35:03.054Z,15.10
2019-03-13T06:37:33.564Z,17.10
2019-03-13T06:40:04.300Z,15.70
2019-03-13T06:42:34.759Z,16.70
2019-03-13T06:45:06.043Z,17.30
2019-03-13T06:47:36.558Z,17.27
2019-03-13T06:50:09.748Z,18.10
2019-03-13T06:52:40.539Z,17.00
2019-03-13T06:55:11.668Z,17.87
2019-03-13T06:57:42.370Z,17.70
2019-03-13T07:00:33.592Z,18.47
2019-03-13T07:03:21.672Z,18.50
2019-03-13T07:06:14.419Z,17.10
2019-03-13T07:09:15.861Z,18.57
2019-03-13T07:12:20.983Z,18.33
2019-03-13T07:15:11.030Z,18.37
2019-03-13T07:18:12.907Z,18.30
2019-03-13T07:21:04.553Z,17.97
2019-03-13T07:24:13.799Z,18.77
2019-03-13T07:27:00.525Z,19.23
2019-03-13T07:29:50.890Z,17.50
2019-03-13T07:32:38.909Z,18.83
2019-03-13T07:35:35.575Z,20.23
2019-03-13T07:38:25.270Z,19.27
2019-03-13T07:41:37.590Z,18.37
2019-03-13T07:44:22.864Z,18.97
2019-03-13T07:47:14.771Z,18.10
2019-03-13T07:50:05.629Z,18.60
2019-03-13T07:53:03.054Z,18.57
2019-03-13T07:55:57.828Z,18.50
2019-03-13T07:59:11.107Z,18.77
2019-03-13T08:02:02.109Z,19.43
2019-03-13T08:04:53.910Z,18.63
2019-03-13T08:07:42.661Z,18.80
2019-03-13T08:10:41.842Z,19.10
2019-03-13T08:13:33.875Z,20.17
2019-03-13T08:16:20.853Z,18.53
2019-03-13T08:19:26.471Z,18.87
2019-03-13T08:22:16.029Z,19.63
2019-03-13T08:25:17.992Z,19.07
2019-03-13T08:28:14.620Z,18.17
2019-03-13T08:31:19.377Z,18.60
2019-03-13T08:34:12.032Z,18.77
2019-03-13T08:37:08.026Z,19.37
2019-03-13T08:40:00.441Z,18.47
2019-03-13T08:42:40.582Z,19.33
2019-03-13T08:45:30.626Z,20.77
2019-03-13T08:48:07.942Z,20.77
2019-03-13T08:50:48.588Z,18.43
2019-03-13T08:53:39.290Z,18.53
2019-03-13T08:56:41.744Z,19.07
2019-03-13T08:59:23.843Z,18.50
2019-03-13T09:02:04.626Z,17.80
2019-03-13T09:05:07.822Z,19.10
2019-03-13T09:08:06.803Z,17.80
2019-03-13T09:10:54.787Z,19.47
2019-03-13T09:13:38.994Z,18.00
2019-03-13T09:16:28.359Z,19.20
2019-03-13T09:19:17.852Z,20.20
2019-03-13T09:22:05.895Z,19.20
2019-03-13T09:25:14.113Z,18.30
2019-03-13T09:28:03.713Z,17.37
2019-03-13T09:30:59.314Z,17.20
2019-03-13T09:33:54.484Z,16.90
2019-03-13T09:36:50.626Z,17.70
2019-03-13T09:39:43.328Z,16.97
2019-03-13T09:42:32.076Z,17.50
2019-03-13T09:45:20.887Z,16.93
2019-03-13T09:48:16.676Z,17.53
2019-03-13T09:50:54.154Z,18.40
2019-03-13T09:53:43.934Z,17.77
2019-03-13T09:56:33.441Z,17.77
2019-03-13T09:59:23.231Z,17.70
2019-03-13T10:02:15.701Z,19.27
2019-03-13T10:04:58.380Z,19.13
2019-03-13T10:07:46.934Z,18.90
2019-03-13T10:10:39.813Z,18.70
2019-03-13T10:13:32.114Z,17.80
2019-03-13T10:16:18.498Z,19.00
2019-03-13T10:19:00.315Z,16.90
2019-03-13T10:21:54.298Z,17.60
2019-03-13T10:24:47.139Z,18.80
2019-03-13T10:27:27.895Z,18.50
2019-03-13T10:30:15.388Z,18.00
2019-03-13T10:33:01.004Z,17.73
2019-03-13T10:35:48.248Z,18.17
2019-03-13T10:38:43.986Z,16.50
2019-03-13T10:41:34.154Z,17.57
2019-03-13T10:44:16.095Z,17.00
2019-03-13T10:47:16.174Z,16.73
2019-03-13T10:49:57.472Z,18.10
2019-03-13T10:52:45.268Z,17.20
2019-03-13T10:55:33.578Z,16.50
2019-03-13T10:58:23.097Z,16.87
2019-03-13T11:01:04.136Z,17.43
2019-03-13T11:03:52.760Z,16.80
2019-03-13T11:06:55.002Z,17.07
2019-03-13T11:09:43.136Z,17.47
2019-03-13T11:12:33.428Z,17.80
2019-03-13T11:15:12.316Z,17.20
2019-03-13T11:17:50.593Z,17.37
2019-03-13T11:20:52.543Z,16.20
2019-03-13T11:23:33.852Z,16.70
2019-03-13T11:26:24.598Z,16.27
2019-03-13T11:29:02.514Z,15.03
2019-03-13T11:31:53.012Z,17.13
2019-03-13T11:34:29.273Z,16.53
2019-03-13T11:37:18.763Z,17.77
2019-03-13T11:40:14.467Z,16.97
2019-03-13T11:43:22.587Z,16.43
2019-03-13T11:46:14.490Z,16.80
2019-03-13T11:49:01.935Z,16.50
2019-03-13T11:51:58.886Z,16.23
2019-03-13T11:54:54.531Z,17.40
2019-03-13T11:57:38.651Z,17.67
2019-03-13T12:00:26.826Z,17.10
2019-03-13T12:03:15.751Z,18.80
2019-03-13T12:06:05.324Z,17.17
2019-03-13T12:08:49.678Z,16.80
2019-03-13T12:11:38.021Z,16.07
2019-03-13T12:14:42.563Z,18.03
2019-03-13T12:17:28.658Z,17.83
2019-03-13T12:20:11.631Z,17.63
2019-03-13T12:22:55.922Z,17.90
2019-03-13T12:25:48.610Z,18.17
2019-03-13T12:28:33.417Z,18.20
2019-03-13T12:31:28.941Z,18.30
2019-03-13T12:34:31.023Z,18.13
2019-03-13T12:37:18.803Z,17.40
2019-03-13T12:40:08.448Z,17.20
2019-03-13T12:42:58.939Z,17.40
2019-03-13T12:45:55.976Z,18.50
2019-03-13T12:49:00.498Z,17.57
2019-03-13T12:51:58.868Z,17.63
2019-03-13T12:54:49.082Z,18.43
2019-03-13T12:57:38.852Z,20.83
2019-03-13T13:00:21.998Z,19.33
2019-03-13T13:03:10.747Z,17.17
2019-03-13T13:05:53.038Z,18.70
2019-03-13T13:09:01.018Z,18.60
2019-03-13T13:11:50.719Z,17.90
2019-03-13T13:14:51.220Z,18.50
2019-03-13T13:17:42.985Z,17.00
2019-03-13T13:20:14.199Z,19.17
2019-03-13T13:22:45.026Z,18.23
2019-03-13T13:25:16.914Z,18.83
2019-03-13T13:27:47.660Z,18.67
2019-03-13T13:30:19.170Z,18.30
2019-03-13T13:32:50.384Z,17.83
2019-03-13T13:35:20.780Z,16.73
2019-03-13T13:37:51.738Z,17.27
2019-03-13T13:40:23.179Z,17.03
2019-03-13T13:42:53.941Z,17.90
2019-03-13T13:45:42.779Z,16.40
2019-03-13T13:48:13.239Z,16.67
2019-03-13T13:50:43.987Z,17.10
2019-03-13T13:53:14.618Z,17.03
2019-03-13T13:55:45.698Z,17.53
2019-03-13T13:58:17.814Z,16.30
2019-03-13T14:00:48.529Z,16.73
2019-03-13T14:03:19.602Z,16.87
2019-03-13T14:05:50.317Z,17.53
2019-03-13T14:08:22.129Z,18.00
2019-03-13T14:10:52.318Z,17.43
2019-03-13T14:13:24.319Z,17.13
2019-03-13T14:15:55.026Z,16.67
2019-03-13T14:18:25.588Z,16.23
2019-03-13T14:20:57.669Z,16.43
2019-03-13T14:23:28.146Z,15.60
2019-03-13T14:25:58.919Z,17.97
2019-03-13T14:28:29.540Z,16.93
2019-03-13T14:31:00.422Z,16.47
2019-03-13T14:33:31.530Z,16.97
2019-03-13T14:36:02.467Z,17.50
2019-03-13T14:38:34.145Z,17.83
2019-03-13T14:41:06.046Z,17.10
2019-03-13T14:43:37.209Z,16.90
2019-03-13T14:46:08.547Z,18.17
2019-03-13T14:48:39.779Z,16.77
2019-03-13T14:51:12.548Z,16.97
2019-03-13T14:53:43.183Z,17.33
2019-03-13T14:56:14.384Z,19.67
2019-03-13T14:58:44.940Z,19.17
2019-03-13T15:01:15.442Z,18.23
2019-03-13T15:03:46.169Z,19.63
2019-03-13T15:06:17.869Z,17.90
2019-03-13T15:08:50.030Z,17.80
2019-03-13T15:11:22.189Z,17.87
2019-03-13T15:13:53.259Z,17.77
2019-03-13T15:16:24.481Z,18.37
2019-03-13T15:18:55.441Z,17.23
2019-03-13T15:21:26.171Z,16.30
2019-03-13T15:23:56.840Z,16.23
2019-03-13T15:26:28.672Z,16.70
2019-03-13T15:28:59.948Z,17.37
2019-03-13T15:31:31.148Z,17.97
2019-03-13T15:34:03.787Z,16.60
2019-03-13T15:36:35.024Z,16.20
2019-03-13T15:39:08.734Z,18.10
2019-03-13T15:41:40.460Z,15.93
2019-03-13T15:44:11.566Z,17.57
2019-03-13T15:46:42.982Z,17.17
2019-03-13T15:49:13.769Z,16.97
2019-03-13T15:51:45.005Z,16.87
2019-03-13T15:54:16.471Z,17.50
2019-03-13T15:57:07.639Z,16.73
2019-03-13T15:59:39.645Z,17.07
2019-03-13T16:02:12.447Z,16.03
2019-03-13T16:04:43.734Z,17.30
2019-03-13T16:07:15.117Z,18.50
2019-03-13T16:09:46.360Z,18.17
2019-03-13T16:12:21.594Z,18.87
2019-03-13T16:14:52.630Z,18.37
2019-03-13T16:17:24.058Z,17.80
2019-03-13T16:19:55.420Z,20.00
2019-03-13T16:22:26.990Z,17.87
2019-03-13T16:24:58.060Z,16.40
2019-03-13T16:27:29.427Z,17.00
2019-03-13T16:30:00.987Z,17.03
2019-03-13T16:32:43.587Z,17.70
2019-03-13T16:35:06.309Z,17.17
2019-03-13T16:37:37.498Z,18.57
2019-03-13T16:40:10.350Z,17.53
2019-03-13T16:42:41.406Z,18.33
2019-03-13T16:45:13.788Z,19.15
2019-03-13T16:47:45.399Z,18.37
2019-03-13T16:50:17.840Z,19.10
2019-03-13T16:52:49.083Z,18.87
2019-03-13T16:55:20.901Z,18.70
2019-03-13T16:57:52.139Z,20.00
2019-03-13T17:00:27.186Z,19.80
2019-03-13T17:02:58.746Z,19.90
2019-03-13T17:05:30.144Z,20.73
2019-03-13T17:08:01.773Z,18.73
2019-03-13T17:10:32.816Z,19.30
2019-03-13T17:13:05.554Z,20.10
2019-03-13T17:15:36.722Z,20.03
2019-03-13T17:18:08.147Z,18.87
2019-03-13T17:20:39.621Z,19.67
2019-03-13T17:23:10.175Z,19.07
2019-03-13T17:25:41.227Z,20.17
2019-03-13T17:28:12.398Z,19.90
2019-03-13T17:30:43.666Z,20.77
2019-03-13T17:33:15.260Z,21.20
2019-03-13T17:35:46.642Z,21.33
2019-03-13T17:38:18.112Z,20.10
2019-03-13T17:40:49.281Z,20.43
2019-03-13T17:43:21.068Z,20.10
2019-03-13T17:45:51.917Z,20.20
2019-03-13T17:48:22.806Z,20.00
2019-03-13T17:50:55.888Z,20.13
2019-03-13T17:53:29.451Z,21.10
2019-03-13T17:56:01.511Z,21.97
2019-03-13T17:58:32.529Z,21.10
2019-03-13T18:01:03.940Z,23.20
2019-03-13T18:03:35.044Z,21.00
2019-03-13T18:06:07.369Z,20.93
2019-03-13T18:08:38.464Z,23.40
2019-03-13T18:11:09.456Z,21.83
2019-03-13T18:13:40.341Z,22.80
2019-03-13T18:16:15.188Z,22.73
2019-03-13T18:18:46.513Z,23.33
2019-03-13T18:21:21.816Z,22.07
2019-03-13T18:23:55.081Z,22.30
2019-03-13T18:26:26.979Z,20.10
2019-03-13T18:29:18.242Z,21.00
2019-03-13T18:31:49.770Z,20.67
2019-03-13T18:34:21.517Z,19.57
2019-03-13T18:36:55.092Z,18.90
2019-03-13T18:39:26.332Z,19.57
2019-03-13T18:42:01.994Z,20.00
2019-03-13T18:44:37.842Z,19.77
2019-03-13T18:47:08.813Z,20.03
2019-03-13T18:49:41.841Z,22.13
2019-03-13T18:52:14.070Z,21.20
2019-03-13T18:54:45.471Z,22.47
2019-03-13T18:57:16.799Z,20.13
2019-03-13T18:59:48.116Z,20.77
2019-03-13T19:02:19.108Z,21.13
2019-03-13T19:05:18.138Z,20.07
2019-03-13T19:07:50.148Z,20.70
2019-03-13T19:10:21.514Z,19.87
2019-03-13T19:12:52.985Z,19.47
2019-03-13T19:15:24.426Z,22.07
2019-03-13T19:17:56.658Z,20.93
2019-03-13T19:20:28.228Z,20.83
2019-03-13T19:23:01.368Z,22.10
2019-03-13T19:25:33.872Z,21.60
2019-03-13T19:28:06.745Z,22.13
2019-03-13T19:30:39.056Z,21.93
2019-03-13T19:33:13.311Z,21.50
2019-03-13T19:35:45.313Z,22.13
2019-03-13T19:38:16.722Z,22.00
2019-03-13T19:40:47.857Z,22.40
2019-03-13T19:43:20.538Z,23.83
2019-03-13T19:45:52.191Z,23.17
2019-03-13T19:48:23.707Z,24.00
2019-03-13T19:50:56.617Z,23.10
2019-03-13T19:53:27.784Z,23.73
2019-03-13T19:56:04.967Z,23.57
2019-03-13T19:58:39.033Z,22.43
2019-03-13T20:01:12.865Z,22.23
2019-03-13T20:03:54.694Z,24.43
2019-03-13T20:06:19.154Z,24.57
2019-03-13T20:08:51.656Z,25.47
2019-03-13T20:11:27.081Z,25.30
2019-03-13T20:14:01.062Z,25.53
2019-03-13T20:16:35.905Z,24.80
2019-03-13T20:19:07.661Z,24.73
2019-03-13T20:21:40.023Z,26.20
2019-03-13T20:24:14.702Z,27.03
2019-03-13T20:26:51.063Z,25.80
2019-03-13T20:29:31.070Z,27.87
2019-03-13T20:32:07.479Z,27.00
2019-03-13T20:34:43.344Z,25.53
2019-03-13T20:37:19.299Z,23.37
2019-03-13T20:40:01.165Z,24.40
2019-03-13T20:42:34.742Z,22.33
2019-03-13T20:45:09.871Z,20.93
2019-03-13T20:47:43.976Z,20.73
2019-03-13T20:50:19.686Z,20.60
2019-03-13T20:52:52.982Z,18.87
2019-03-13T20:55:31.264Z,19.50
2019-03-13T20:58:03.105Z,19.17
2019-03-13T21:00:37.546Z,17.73
2019-03-13T21:03:11.405Z,20.10
2019-03-13T21:05:50.225Z,16.83
2019-03-13T21:08:24.130Z,18.90
2019-03-13T21:10:56.153Z,19.63
2019-03-13T21:13:31.386Z,17.73
2019-03-13T21:16:03.308Z,18.70
2019-03-13T21:18:35.457Z,18.00
2019-03-13T21:21:10.827Z,18.20
2019-03-13T21:23:43.123Z,19.70
2019-03-13T21:26:14.418Z,17.43
2019-03-13T21:28:47.293Z,16.20
2019-03-13T21:31:18.267Z,17.10
2019-03-13T21:33:58.444Z,17.13
2019-03-13T21:36:30.556Z,17.10
2019-03-13T21:39:02.419Z,16.47
2019-03-13T21:41:35.538Z,15.80
2019-03-13T21:44:07.186Z,16.77
2019-03-13T21:46:39.082Z,16.40
2019-03-13T21:49:11.339Z,17.23
2019-03-13T21:51:43.347Z,16.57
2019-03-13T21:54:14.416Z,16.20
2019-03-13T21:56:45.022Z,16.13
2019-03-13T21:59:16.939Z,17.80
2019-03-13T22:01:48.132Z,15.90
2019-03-13T22:04:23.986Z,17.07
2019-03-13T22:06:52.000Z,17.47
2019-03-13T22:09:23.390Z,16.93
2019-03-13T22:11:53.787Z,16.70
2019-03-13T22:14:24.459Z,17.40
2019-03-13T22:16:54.923Z,16.70
2019-03-13T22:19:26.222Z,15.97
2019-03-13T22:22:15.524Z,16.07
2019-03-13T22:24:47.002Z,16.00
2019-03-13T22:27:17.640Z,16.90
2019-03-13T22:29:48.748Z,17.33
2019-03-13T22:32:19.028Z,16.27
2019-03-13T22:34:50.605Z,16.03
2019-03-13T22:37:21.342Z,16.40
2019-03-13T22:39:52.359Z,16.47
2019-03-13T22:42:22.914Z,16.83
2019-03-13T22:44:53.861Z,18.10
2019-03-13T22:47:24.943Z,17.00
2019-03-13T22:49:55.655Z,16.53
2019-03-13T22:52:26.706Z,16.90
2019-03-13T22:54:57.427Z,16.83
2019-03-13T22:57:27.972Z,17.37
2019-03-13T22:59:58.892Z,16.83
2019-03-13T23:02:29.903Z,16.57
2019-03-13T23:05:01.015Z,16.13
2019-03-13T23:07:33.520Z,16.10
2019-03-13T23:10:08.468Z,16.03
2019-03-13T23:12:39.258Z,18.80
2019-03-13T23:15:10.365Z,17.43
2019-03-13T23:17:41.110Z,17.30
2019-03-13T23:20:12.891Z,16.90
2019-03-13T23:22:43.521Z,16.37
2019-03-13T23:25:14.289Z,17.57
2019-03-13T23:27:45.459Z,17.30
2019-03-13T23:30:16.662Z,17.63
2019-03-13T23:32:47.180Z,17.40
2019-03-13T23:35:18.508Z,17.90
2019-03-13T23:37:49.971Z,18.07
2019-03-13T23:40:20.690Z,18.80
2019-03-13T23:42:51.556Z,17.20
2019-03-13T23:45:23.340Z,17.27
2019-03-13T23:47:54.621Z,16.43
2019-03-13T23:50:28.197Z,16.17
2019-03-13T23:52:59.731Z,15.97
2019-03-13T23:55:30.618Z,17.23
2019-03-13T23:58:01.297Z,16.63
